createdAt,value
2018-09-24T00:01:12.180Z,2.07
2018-09-24T00:03:47.151Z,2.17
2018-09-24T00:06:15.719Z,1.70
2018-09-24T00:08:44.322Z,1.77
2018-09-24T00:11:12.509Z,2.10
2018-09-24T00:13:40.695Z,2.63
2018-09-24T00:16:08.898Z,2.80
2018-09-24T00:18:37.050Z,4.23
2018-09-24T00:21:05.404Z,2.20
2018-09-24T00:23:33.598Z,2.07
2018-09-24T00:26:01.754Z,2.87
2018-09-24T00:28:29.913Z,2.97
2018-09-24T00:30:58.146Z,3.17
2018-09-24T00:33:26.350Z,3.10
2018-09-24T00:35:55.358Z,3.27
2018-09-24T00:38:23.554Z,3.00
2018-09-24T00:40:53.224Z,3.07
2018-09-24T00:43:23.264Z,3.20
2018-09-24T00:45:51.934Z,3.30
2018-09-24T00:48:20.616Z,3.50
2018-09-24T00:50:49.166Z,3.63
2018-09-24T00:53:17.749Z,5.23
2018-09-24T00:55:54.228Z,8.50
2018-09-24T00:58:22.425Z,3.40
2018-09-24T01:00:51.194Z,3.40
2018-09-24T01:03:19.405Z,5.37
2018-09-24T01:05:47.618Z,5.53
2018-09-24T01:08:16.047Z,3.37
2018-09-24T01:10:44.243Z,3.57
2018-09-24T01:13:12.457Z,3.00
2018-09-24T01:15:40.680Z,2.77
2018-09-24T01:18:08.849Z,4.73
2018-09-24T01:20:37.070Z,5.37
2018-09-24T01:23:05.250Z,4.20
2018-09-24T01:25:35.344Z,3.37
2018-09-24T01:28:03.509Z,6.83
2018-09-24T01:30:31.771Z,3.33
2018-09-24T01:32:59.942Z,3.37
2018-09-24T01:35:28.322Z,3.70
2018-09-24T01:37:57.426Z,5.13
2018-09-24T01:40:25.604Z,5.23
2018-09-24T01:42:53.822Z,3.83
2018-09-24T01:45:22.792Z,4.47
2018-09-24T01:47:50.988Z,4.90
2018-09-24T01:50:19.158Z,6.20
2018-09-24T01:52:47.338Z,3.83
2018-09-24T01:55:15.537Z,6.07
2018-09-24T01:57:43.714Z,5.43
2018-09-24T02:00:11.895Z,6.30
2018-09-24T02:02:40.117Z,4.60
2018-09-24T02:05:13.464Z,3.87
2018-09-24T02:07:41.758Z,7.20
2018-09-24T02:10:09.922Z,4.73
2018-09-24T02:12:38.100Z,8.90
2018-09-24T02:15:06.418Z,6.17
2018-09-24T02:17:34.650Z,6.67
2018-09-24T02:20:03.210Z,13.07
2018-09-24T02:22:31.354Z,7.30
2018-09-24T02:25:00.497Z,5.77
2018-09-24T02:27:29.082Z,5.70
2018-09-24T02:29:57.218Z,8.27
2018-09-24T02:32:25.377Z,5.80
2018-09-24T02:34:55.826Z,9.00
2018-09-24T02:37:24.046Z,5.63
2018-09-24T02:39:52.191Z,7.93
2018-09-24T02:42:20.350Z,6.63
2018-09-24T02:44:56.606Z,6.40
2018-09-24T02:47:26.490Z,6.20
2018-09-24T02:49:54.785Z,5.93
2018-09-24T02:52:24.461Z,6.77
2018-09-24T02:54:52.653Z,7.93
2018-09-24T02:57:21.209Z,11.10
2018-09-24T02:59:49.366Z,10.00
2018-09-24T03:02:17.565Z,11.43
2018-09-24T03:04:46.031Z,8.10
2018-09-24T03:07:14.201Z,8.27
2018-09-24T03:09:42.366Z,10.20
2018-09-24T03:12:10.546Z,7.40
2018-09-24T03:14:40.430Z,6.50
2018-09-24T03:17:08.956Z,8.10
2018-09-24T03:19:37.152Z,12.97
2018-09-24T03:22:05.659Z,8.93
2018-09-24T03:24:34.460Z,10.10
2018-09-24T03:27:02.630Z,8.93
2018-09-24T03:29:30.886Z,8.93
2018-09-24T03:32:00.751Z,6.57
2018-09-24T03:34:29.266Z,11.93
2018-09-24T03:37:03.334Z,6.90
2018-09-24T03:39:31.870Z,11.63
2018-09-24T03:42:00.345Z,8.53
2018-09-24T03:44:28.494Z,9.10
2018-09-24T03:46:56.659Z,12.50
2018-09-24T03:49:25.314Z,7.83
2018-09-24T03:51:53.482Z,11.37
2018-09-24T03:54:21.714Z,8.47
2018-09-24T03:56:49.877Z,8.80
2018-09-24T03:59:18.063Z,8.90
2018-09-24T04:01:46.370Z,8.93
2018-09-24T04:04:19.970Z,12.17
2018-09-24T04:06:53.555Z,10.07
2018-09-24T04:09:27.967Z,9.87
2018-09-24T04:12:01.434Z,10.50
2018-09-24T04:14:35.458Z,10.57
2018-09-24T04:17:09.008Z,11.30
2018-09-24T04:19:42.723Z,10.87
2018-09-24T04:22:16.451Z,8.87
2018-09-24T04:24:50.126Z,11.13
2018-09-24T04:27:23.750Z,18.90
2018-09-24T04:29:57.446Z,11.23
2018-09-24T04:32:31.151Z,12.33
2018-09-24T04:35:04.735Z,13.40
2018-09-24T04:37:38.366Z,11.10
2018-09-24T04:40:12.503Z,10.37
2018-09-24T04:42:46.230Z,12.57
2018-09-24T04:45:20.561Z,9.93
2018-09-24T04:47:54.042Z,16.30
2018-09-24T04:50:27.695Z,12.40
2018-09-24T04:53:01.094Z,10.87
2018-09-24T04:55:34.846Z,13.13
2018-09-24T04:58:08.422Z,12.13
2018-09-24T05:00:42.822Z,10.80
2018-09-24T05:03:16.422Z,14.77
2018-09-24T05:05:49.989Z,13.43
2018-09-24T05:08:23.810Z,15.27
2018-09-24T05:10:57.238Z,13.30
2018-09-24T05:13:31.435Z,14.27
2018-09-24T05:16:04.962Z,17.17
2018-09-24T05:18:38.499Z,14.20
2018-09-24T05:21:11.909Z,18.17
2018-09-24T05:23:45.478Z,21.27
2018-09-24T05:26:19.130Z,14.50
2018-09-24T05:28:52.830Z,15.97
2018-09-24T05:31:26.303Z,14.20
2018-09-24T05:33:59.978Z,15.73
2018-09-24T05:36:33.616Z,15.67
2018-09-24T05:39:07.190Z,13.60
2018-09-24T05:41:40.898Z,14.50
2018-09-24T05:44:14.544Z,16.23
2018-09-24T05:46:48.018Z,12.00
2018-09-24T05:49:21.606Z,17.17
2018-09-24T05:51:55.134Z,10.63
2018-09-24T05:54:28.811Z,15.63
2018-09-24T05:57:03.090Z,19.23
2018-09-24T05:59:36.734Z,9.67
2018-09-24T06:02:10.752Z,12.67
2018-09-24T06:04:44.715Z,11.93
2018-09-24T06:07:18.222Z,12.53
2018-09-24T06:09:52.710Z,9.97
2018-09-24T06:12:26.406Z,11.20
2018-09-24T06:15:00.987Z,14.57
2018-09-24T06:17:41.011Z,7.70
2018-09-24T06:20:14.540Z,8.60
2018-09-24T06:22:49.916Z,4.83
2018-09-24T06:25:23.603Z,5.13
2018-09-24T06:27:57.171Z,5.13
2018-09-24T06:30:30.874Z,4.00
2018-09-24T06:33:04.573Z,3.80
2018-09-24T06:35:38.687Z,5.47
2018-09-24T06:38:12.236Z,6.60
2018-09-24T06:40:45.724Z,3.13
2018-09-24T06:43:19.408Z,4.30
2018-09-24T06:45:52.798Z,5.77
2018-09-24T06:48:27.270Z,3.03
2018-09-24T06:51:00.911Z,3.70
2018-09-24T06:53:34.477Z,7.60
2018-09-24T06:56:08.266Z,7.83
2018-09-24T06:58:41.943Z,3.97
2018-09-24T07:01:15.477Z,5.40
2018-09-24T07:03:48.992Z,4.90
2018-09-24T07:06:22.504Z,9.00
2018-09-24T07:08:56.098Z,3.67
2018-09-24T07:11:29.910Z,3.00
2018-09-24T07:14:03.562Z,5.90
2018-09-24T07:16:37.122Z,7.97
2018-09-24T07:19:11.070Z,5.40
2018-09-24T07:21:44.726Z,3.00
2018-09-24T07:24:18.307Z,10.03
2018-09-24T07:26:53.711Z,5.67
2018-09-24T07:29:27.307Z,9.53
2018-09-24T07:32:00.915Z,5.50
2018-09-24T07:34:34.621Z,8.13
2018-09-24T07:37:08.247Z,9.60
2018-09-24T07:39:41.766Z,6.43
2018-09-24T07:42:17.249Z,6.57
2018-09-24T07:44:50.748Z,4.07
2018-09-24T07:47:24.410Z,6.60
2018-09-24T07:49:58.054Z,8.17
2018-09-24T07:52:35.644Z,7.30
2018-09-24T07:55:09.294Z,4.73
2018-09-24T07:57:42.720Z,7.70
2018-09-24T08:00:16.381Z,5.00
2018-09-24T08:02:50.079Z,6.40
2018-09-24T08:05:23.522Z,7.80
2018-09-24T08:07:57.268Z,4.40
2018-09-24T08:10:30.786Z,3.57
2018-09-24T08:13:04.437Z,7.37
2018-09-24T08:15:37.810Z,4.87
2018-09-24T08:18:11.584Z,8.57
2018-09-24T08:20:45.141Z,5.33
2018-09-24T08:23:19.071Z,5.80
2018-09-24T08:25:52.606Z,4.60
2018-09-24T08:28:26.229Z,6.10
2018-09-24T08:30:59.887Z,2.00
2018-09-24T08:33:34.194Z,4.87
2018-09-24T08:36:07.723Z,4.00
2018-09-24T08:38:41.390Z,6.07
2018-09-24T08:41:14.878Z,3.97
2018-09-24T08:43:48.547Z,6.37
2018-09-24T08:46:22.122Z,6.07
2018-09-24T08:48:59.163Z,5.90
2018-09-24T08:51:32.686Z,4.77
2018-09-24T08:54:06.226Z,5.43
2018-09-24T08:56:40.112Z,4.27
2018-09-24T08:59:14.525Z,5.63
2018-09-24T09:01:47.982Z,7.25
2018-09-24T09:04:21.546Z,4.20
2018-09-24T09:06:56.012Z,5.87
2018-09-24T09:09:29.933Z,5.87
2018-09-24T09:12:05.386Z,5.17
2018-09-24T09:14:39.163Z,4.08
2018-09-24T09:17:12.878Z,9.60
2018-09-24T09:19:46.470Z,3.45
2018-09-24T09:22:20.274Z,8.27
2018-09-24T09:24:53.874Z,5.50
2018-09-24T09:27:27.906Z,6.73
2018-09-24T09:30:02.361Z,5.60
2018-09-24T09:32:36.590Z,4.37
2018-09-24T09:35:10.326Z,5.75
2018-09-24T09:37:44.126Z,5.42
2018-09-24T09:40:17.628Z,4.87
2018-09-24T09:42:51.330Z,2.77
2018-09-24T09:45:25.462Z,3.17
2018-09-24T09:47:59.538Z,5.97
2018-09-24T09:50:33.062Z,3.90
2018-09-24T09:53:06.635Z,5.10
2018-09-24T09:55:40.302Z,3.77
2018-09-24T09:58:14.022Z,4.30
2018-09-24T10:00:47.501Z,5.13
2018-09-24T10:03:21.414Z,3.70
2018-09-24T10:05:56.001Z,3.60
2018-09-24T10:08:29.544Z,3.80
2018-09-24T10:11:03.135Z,6.40
2018-09-24T10:13:36.806Z,5.27
2018-09-24T10:16:10.626Z,5.50
2018-09-24T10:18:44.090Z,6.47
2018-09-24T10:21:18.046Z,5.77
2018-09-24T10:23:51.719Z,6.40
2018-09-24T10:26:26.160Z,3.93
2018-09-24T10:28:59.837Z,2.40
2018-09-24T10:31:33.362Z,8.40
2018-09-24T10:34:07.058Z,1.20
2018-09-24T10:36:40.618Z,1.92
2018-09-24T10:39:14.780Z,4.00
2018-09-24T10:41:48.526Z,2.42
2018-09-24T10:44:22.180Z,3.52
2018-09-24T10:46:55.790Z,4.33
2018-09-24T10:49:32.955Z,2.37
2018-09-24T10:52:06.642Z,2.30
2018-09-24T10:54:40.287Z,5.12
2018-09-24T10:57:14.057Z,2.05
2018-09-24T10:59:47.518Z,3.00
2018-09-24T11:02:21.192Z,2.15
2018-09-24T11:04:54.695Z,4.70
2018-09-24T11:07:28.666Z,5.00
2018-09-24T11:10:02.192Z,3.25
2018-09-24T11:12:35.866Z,4.05
2018-09-24T11:15:09.604Z,5.87
2018-09-24T11:17:43.429Z,7.12
2018-09-24T11:20:16.898Z,2.47
2018-09-24T11:22:50.432Z,3.55
2018-09-24T11:25:24.020Z,1.77
2018-09-24T11:27:57.552Z,2.05
2018-09-24T11:30:31.216Z,4.77
2018-09-24T11:33:04.753Z,1.73
2018-09-24T11:35:38.418Z,2.17
2018-09-24T11:38:11.990Z,2.12
2018-09-24T11:40:45.701Z,1.47
2018-09-24T11:43:19.398Z,1.52
2018-09-24T11:45:53.074Z,1.67
2018-09-24T11:48:26.823Z,1.42
2018-09-24T11:51:02.037Z,2.92
2018-09-24T11:53:35.898Z,2.42
2018-09-24T11:56:09.445Z,1.87
2018-09-24T11:58:43.694Z,4.50
2018-09-24T12:01:17.610Z,2.25
2018-09-24T12:03:52.026Z,5.35
2018-09-24T12:06:25.482Z,3.27
2018-09-24T12:08:59.186Z,1.85
2018-09-24T12:11:32.775Z,2.20
2018-09-24T12:14:06.470Z,2.15
2018-09-24T12:16:39.986Z,2.55
2018-09-24T12:19:13.715Z,4.03
2018-09-24T12:21:47.310Z,1.32
2018-09-24T12:24:20.882Z,5.80
2018-09-24T12:26:55.211Z,4.15
2018-09-24T12:29:28.960Z,3.10
2018-09-24T12:32:02.627Z,1.92
2018-09-24T12:34:38.333Z,2.55
2018-09-24T12:37:11.856Z,2.00
2018-09-24T12:39:45.577Z,1.13
2018-09-24T12:42:19.141Z,1.10
2018-09-24T12:44:52.738Z,1.60
2018-09-24T12:47:26.716Z,2.77
2018-09-24T12:50:00.295Z,2.47
2018-09-24T12:52:34.645Z,3.27
2018-09-24T12:55:08.350Z,2.40
2018-09-24T12:57:42.978Z,3.07
2018-09-24T13:00:16.586Z,3.10
2018-09-24T13:02:50.118Z,5.37
2018-09-24T13:05:23.669Z,1.87
2018-09-24T13:07:57.846Z,2.53
2018-09-24T13:10:31.562Z,4.57
2018-09-24T13:13:05.159Z,1.20
2018-09-24T13:15:41.018Z,2.33
2018-09-24T13:18:14.546Z,3.60
2018-09-24T13:20:48.198Z,2.02
2018-09-24T13:23:21.930Z,2.27
2018-09-24T13:25:55.486Z,2.52
2018-09-24T13:28:29.058Z,1.57
2018-09-24T13:31:09.543Z,3.00
2018-09-24T13:33:43.158Z,4.80
2018-09-24T13:36:16.802Z,5.97
2018-09-24T13:38:52.086Z,3.25
2018-09-24T13:41:25.849Z,2.62
2018-09-24T13:43:59.678Z,2.37
2018-09-24T13:46:33.186Z,1.07
2018-09-24T13:49:06.864Z,1.40
2018-09-24T13:51:40.575Z,1.35
2018-09-24T13:54:15.171Z,2.27
2018-09-24T13:56:48.622Z,3.20
2018-09-24T13:59:22.310Z,4.00
2018-09-24T14:01:55.930Z,1.20
2018-09-24T14:04:29.886Z,2.72
2018-09-24T14:07:03.561Z,2.90
2018-09-24T14:09:37.850Z,4.12
2018-09-24T14:12:11.306Z,3.10
2018-09-24T14:14:45.111Z,2.17
2018-09-24T14:17:18.946Z,2.15
2018-09-24T14:19:56.609Z,2.15
2018-09-24T14:22:32.094Z,0.85
2018-09-24T14:25:05.649Z,1.37
2018-09-24T14:27:39.566Z,1.77
2018-09-24T14:30:13.014Z,2.15
2018-09-24T14:32:46.790Z,2.22
2018-09-24T14:35:20.896Z,1.45
2018-09-24T14:37:54.723Z,1.98
2018-09-24T14:40:28.259Z,1.10
2018-09-24T14:43:01.925Z,2.42
2018-09-24T14:45:35.486Z,3.12
2018-09-24T14:48:09.061Z,3.22
2018-09-24T14:50:42.661Z,1.22
2018-09-24T14:53:16.300Z,0.72
2018-09-24T14:55:49.878Z,1.37
2018-09-24T14:58:23.999Z,2.47
2018-09-24T15:00:57.832Z,3.77
2018-09-24T15:03:31.474Z,1.00
2018-09-24T15:06:05.118Z,3.50
2018-09-24T15:08:38.688Z,0.83
2018-09-24T15:11:12.798Z,2.57
2018-09-24T15:13:46.854Z,2.10
2018-09-24T15:16:20.311Z,3.77
2018-09-24T15:18:54.389Z,0.70
2018-09-24T15:21:28.017Z,0.60
2018-09-24T15:24:02.505Z,1.23
2018-09-24T15:26:36.275Z,1.07
2018-09-24T15:29:09.929Z,1.07
2018-09-24T15:31:43.530Z,1.40
2018-09-24T15:34:17.132Z,0.82
2018-09-24T15:36:50.535Z,0.50
2018-09-24T15:39:24.141Z,1.13
2018-09-24T15:41:57.641Z,1.00
2018-09-24T15:44:31.332Z,1.80
2018-09-24T15:47:05.002Z,1.03
2018-09-24T15:49:38.708Z,1.73
2018-09-24T15:52:12.887Z,1.80
2018-09-24T15:54:50.417Z,2.00
2018-09-24T15:57:24.036Z,0.63
2018-09-24T15:59:57.690Z,1.47
2018-09-24T16:02:31.388Z,4.03
2018-09-24T16:05:04.947Z,1.00
2018-09-24T16:07:38.606Z,1.03
2018-09-24T16:10:12.990Z,0.50
2018-09-24T16:12:46.730Z,3.17
2018-09-24T16:15:20.302Z,1.47
2018-09-24T16:17:53.939Z,1.80
2018-09-24T16:20:35.170Z,1.97
2018-09-24T16:23:08.819Z,1.23
2018-09-24T16:25:44.185Z,0.80
2018-09-24T16:28:17.863Z,0.70
2018-09-24T16:30:51.419Z,2.07
2018-09-24T16:33:24.934Z,2.30
2018-09-24T16:35:59.465Z,1.10
2018-09-24T16:38:32.954Z,1.50
2018-09-24T16:41:06.656Z,0.80
2018-09-24T16:43:40.174Z,1.03
2018-09-24T16:46:14.540Z,2.43
2018-09-24T16:48:49.698Z,3.90
2018-09-24T16:51:23.369Z,0.57
2018-09-24T16:53:56.915Z,1.10
2018-09-24T16:56:30.649Z,1.00
2018-09-24T16:59:04.114Z,1.27
2018-09-24T17:01:37.748Z,1.00
2018-09-24T17:04:11.299Z,3.57
2018-09-24T17:06:44.840Z,1.90
2018-09-24T17:09:18.455Z,0.90
2018-09-24T17:11:52.204Z,1.97
2018-09-24T17:14:25.768Z,2.13
2018-09-24T17:16:59.430Z,0.73
2018-09-24T17:19:33.367Z,1.67
2018-09-24T17:22:07.147Z,0.83
2018-09-24T17:24:40.768Z,0.77
2018-09-24T17:27:14.521Z,1.10
2018-09-24T17:29:48.255Z,1.37
2018-09-24T17:32:22.886Z,1.27
2018-09-24T17:34:56.790Z,1.07
2018-09-24T17:37:30.372Z,1.73
2018-09-24T17:40:04.051Z,2.97
2018-09-24T17:42:38.074Z,2.67
2018-09-24T17:45:12.450Z,1.07
2018-09-24T17:47:49.865Z,1.00
2018-09-24T17:50:23.420Z,0.90
2018-09-24T17:52:58.434Z,2.07
2018-09-24T17:55:32.139Z,3.87
2018-09-24T17:58:05.849Z,1.40
2018-09-24T18:00:39.370Z,1.17
2018-09-24T18:03:13.010Z,2.07
2018-09-24T18:05:46.491Z,1.13
2018-09-24T18:08:20.296Z,2.40
2018-09-24T18:10:53.810Z,2.37
2018-09-24T18:13:27.590Z,5.57
2018-09-24T18:16:01.294Z,1.03
2018-09-24T18:18:35.548Z,2.10
2018-09-24T18:21:09.070Z,1.60
2018-09-24T18:23:42.789Z,2.87
2018-09-24T18:26:16.378Z,1.47
2018-09-24T18:28:49.733Z,1.50
2018-09-24T18:31:23.538Z,1.50
2018-09-24T18:33:57.054Z,5.20
2018-09-24T18:36:30.607Z,0.93
2018-09-24T18:39:04.254Z,1.13
2018-09-24T18:41:37.914Z,1.37
2018-09-24T18:44:11.675Z,0.77
2018-09-24T18:46:45.176Z,0.83
2018-09-24T18:49:18.700Z,1.33
2018-09-24T18:51:52.400Z,2.30
2018-09-24T18:54:26.098Z,1.53
2018-09-24T18:56:59.745Z,2.07
2018-09-24T18:59:33.350Z,2.97
2018-09-24T19:02:06.894Z,1.30
2018-09-24T19:04:41.038Z,2.17
2018-09-24T19:07:14.766Z,2.53
2018-09-24T19:09:48.503Z,2.93
2018-09-24T19:12:22.046Z,2.23
2018-09-24T19:14:55.584Z,2.63
2018-09-24T19:17:29.114Z,2.50
2018-09-24T19:20:03.770Z,1.67
2018-09-24T19:22:37.385Z,2.67
2018-09-24T19:25:10.958Z,1.57
2018-09-24T19:27:45.170Z,3.53
2018-09-24T19:30:18.693Z,1.63
2018-09-24T19:32:52.334Z,0.77
2018-09-24T19:35:25.938Z,3.07
2018-09-24T19:37:59.793Z,2.30
2018-09-24T19:40:33.671Z,1.80
2018-09-24T19:43:07.275Z,1.83
2018-09-24T19:45:40.906Z,3.00
2018-09-24T19:48:14.429Z,2.73
2018-09-24T19:50:48.126Z,1.07
2018-09-24T19:53:21.713Z,0.80
2018-09-24T19:55:55.152Z,2.40
2018-09-24T19:58:28.621Z,5.37
2018-09-24T20:01:02.666Z,3.07
2018-09-24T20:03:36.270Z,2.37
2018-09-24T20:06:09.989Z,1.97
2018-09-24T20:08:43.555Z,2.33
2018-09-24T20:11:17.130Z,5.70
2018-09-24T20:13:50.718Z,2.23
2018-09-24T20:16:24.305Z,3.37
2018-09-24T20:18:58.086Z,3.43
2018-09-24T20:21:31.639Z,3.93
2018-09-24T20:24:05.170Z,2.60
2018-09-24T20:26:38.822Z,1.80
2018-09-24T20:29:12.652Z,2.97
2018-09-24T20:34:44.048Z,2.27
2018-09-24T20:37:17.573Z,1.70
2018-09-24T20:39:51.618Z,3.73
2018-09-24T20:42:25.178Z,9.43
2018-09-24T20:44:58.918Z,5.07
2018-09-24T20:47:32.483Z,4.83
2018-09-24T20:50:06.027Z,3.33
2018-09-24T20:52:39.644Z,2.90
2018-09-24T20:55:13.318Z,2.23
2018-09-24T20:57:47.058Z,2.80
2018-09-24T21:00:21.363Z,5.60
2018-09-24T21:02:55.077Z,3.40
2018-09-24T21:05:28.622Z,2.00
2018-09-24T21:08:02.254Z,4.20
2018-09-24T21:10:38.228Z,1.30
2018-09-24T21:13:11.853Z,2.67
2018-09-24T21:15:45.538Z,3.87
2018-09-24T21:18:19.569Z,4.27
2018-09-24T21:20:53.214Z,5.23
2018-09-24T21:23:27.027Z,2.03
2018-09-24T21:26:00.758Z,3.33
2018-09-24T21:28:34.306Z,4.17
2018-09-24T21:31:07.910Z,2.53
2018-09-24T21:33:41.540Z,4.57
2018-09-24T21:36:15.135Z,5.77
2018-09-24T21:38:49.506Z,1.80
2018-09-24T21:41:22.972Z,3.23
2018-09-24T21:43:56.557Z,3.73
2018-09-24T21:46:30.233Z,2.13
2018-09-24T21:49:03.841Z,1.97
2018-09-24T21:51:37.551Z,1.50
2018-09-24T21:54:11.066Z,2.70
2018-09-24T21:56:44.742Z,7.43
2018-09-24T21:59:18.447Z,2.60
2018-09-24T22:01:52.039Z,6.27
2018-09-24T22:04:25.698Z,2.40
2018-09-24T22:06:59.274Z,3.83
2018-09-24T22:09:32.998Z,2.00
2018-09-24T22:12:06.854Z,5.27
2018-09-24T22:14:40.488Z,3.70
2018-09-24T22:17:14.057Z,3.53
2018-09-24T22:19:47.794Z,4.10
2018-09-24T22:22:21.517Z,4.30
2018-09-24T22:24:55.201Z,2.47
2018-09-24T22:27:29.841Z,5.80
2018-09-24T22:30:03.506Z,2.57
2018-09-24T22:32:37.342Z,5.73
2018-09-24T22:35:11.051Z,3.07
2018-09-24T22:37:44.778Z,7.07
2018-09-24T22:40:18.695Z,7.10
2018-09-24T22:42:52.326Z,5.07
2018-09-24T22:45:25.961Z,8.40
2018-09-24T22:47:59.595Z,5.47
2018-09-24T22:50:33.261Z,6.77
2018-09-24T22:53:08.522Z,4.43
2018-09-24T22:55:42.958Z,4.57
2018-09-24T22:58:16.479Z,6.80
2018-09-24T23:00:50.074Z,7.17
2018-09-24T23:03:23.681Z,7.83
2018-09-24T23:05:57.310Z,4.43
2018-09-24T23:08:31.462Z,4.67
2018-09-24T23:11:05.774Z,2.60
2018-09-24T23:13:39.322Z,4.30
2018-09-24T23:16:12.996Z,5.50
2018-09-24T23:18:46.682Z,5.47
2018-09-24T23:21:20.249Z,2.43
2018-09-24T23:23:53.807Z,3.87
2018-09-24T23:26:27.490Z,5.20
2018-09-24T23:29:01.091Z,5.00
2018-09-24T23:31:34.890Z,4.07
2018-09-24T23:34:08.618Z,3.40
2018-09-24T23:36:42.379Z,7.90
2018-09-24T23:39:15.782Z,2.10
2018-09-24T23:41:49.474Z,7.90
2018-09-24T23:44:23.060Z,5.90
2018-09-24T23:46:56.725Z,3.07
2018-09-24T23:49:30.234Z,3.60
2018-09-24T23:52:03.890Z,3.30
2018-09-24T23:54:37.624Z,4.40
2018-09-24T23:57:11.203Z,4.77
2018-09-24T23:59:44.734Z,4.67
